« Back
NWS Peachtree City, Ga » Text Product » ATL Terminal Aerodrome Forecast


Printer-friendly Version
Current Version              Previous Versions:   1  2  3  4  5  6  7  8  9  

Terminal Aerodrome Forecast

504
FTUS42 KFFC 271127
TAFATL
TAF
KATL 271127Z 2712/2818 19004KT P6SM FEW060 SCT120
     FM271500 21007KT P6SM SCT035
     FM271800 23009KT P6SM VCSH SCT050
      TEMPO 2720/2723 5SM -TSRA BKN035CB
     FM280100 30005KT P6SM SCT070 BKN150
     FM281400 35006KT P6SM SCT035=

USA.gov is the U.S. government's official web portal to all federal, state and local government web resources and services.